Oran, Iowa
Current Conditions -  °F | °C
As of 10:15 PM on Friday 19 Dec 2014 (Local Time) from KOLZ Reporting Station
Overcast Overcast  
Wind Chill: 20°   Ceiling: 2100
Heat Index: 28°   Visibility: 10mi
Dew Point: 25°   Wind: 8mph
Humidity: 86%   Direction: 160°SSE
Pressure: 30.22"   Gusts: NA
Location:  42.7°N, 92.07°W
Report Text: KOLZ 200415Z AUTO 16007KT 10SM BKN021 OVC026 M02/M04 A3022 RMK AO2
Loading
Personal Weather Stations






























Interactive Weather Map New forecast layout! Learn more

10-Day Weather Forecast

Advertisements
Track Severe Weather on mobile